createdAt,value
2018-06-03T00:01:18.921Z,3.03
2018-06-03T00:03:46.590Z,3.37
2018-06-03T00:06:14.199Z,4.40
2018-06-03T00:08:41.846Z,3.10
2018-06-03T00:11:09.450Z,3.00
2018-06-03T00:13:37.206Z,2.97
2018-06-03T00:16:04.958Z,3.90
2018-06-03T00:18:32.632Z,4.17
2018-06-03T00:21:11.928Z,4.10
2018-06-03T00:23:39.579Z,3.23
2018-06-03T00:26:07.234Z,2.70
2018-06-03T00:28:34.878Z,3.30
2018-06-03T00:31:02.500Z,2.90
2018-06-03T00:33:30.147Z,3.03
2018-06-03T00:36:09.714Z,2.97
2018-06-03T00:38:37.373Z,3.50
2018-06-03T00:41:04.986Z,3.53
2018-06-03T00:43:32.650Z,3.50
2018-06-03T00:46:00.271Z,3.23
2018-06-03T00:48:27.921Z,2.77
2018-06-03T00:50:55.532Z,3.20
2018-06-03T00:53:23.186Z,3.07
2018-06-03T00:55:50.848Z,2.87
2018-06-03T00:58:50.890Z,3.03
2018-06-03T01:01:19.819Z,2.77
2018-06-03T01:03:48.763Z,2.67
2018-06-03T01:06:17.768Z,4.17
2018-06-03T01:08:46.743Z,4.03
2018-06-03T01:11:15.740Z,2.93
2018-06-03T01:13:44.695Z,3.33
2018-06-03T01:16:13.671Z,2.67
2018-06-03T01:18:42.607Z,3.00
2018-06-03T01:21:11.599Z,3.80
2018-06-03T01:23:40.561Z,2.83
2018-06-03T01:26:09.558Z,2.63
2018-06-03T01:28:38.563Z,2.83
2018-06-03T01:31:07.681Z,2.70
2018-06-03T01:33:36.618Z,2.80
2018-06-03T01:36:05.610Z,3.30
2018-06-03T01:38:34.590Z,2.87
2018-06-03T01:41:03.610Z,2.87
2018-06-03T01:43:32.667Z,2.63
2018-06-03T01:46:01.662Z,3.30
2018-06-03T01:48:30.626Z,2.70
2018-06-03T01:50:59.632Z,3.23
2018-06-03T01:53:28.594Z,3.13
2018-06-03T01:55:57.622Z,3.57
2018-06-03T01:58:26.591Z,2.30
2018-06-03T02:00:55.593Z,3.10
2018-06-03T02:03:24.550Z,3.50
2018-06-03T02:05:53.571Z,3.37
2018-06-03T02:08:22.570Z,3.93
2018-06-03T02:10:51.572Z,3.93
2018-06-03T02:13:20.531Z,4.00
2018-06-03T02:15:49.479Z,3.77
2018-06-03T02:18:18.371Z,3.57
2018-06-03T02:20:47.321Z,3.30
2018-06-03T02:23:16.303Z,2.97
2018-06-03T02:25:45.283Z,3.97
2018-06-03T02:28:14.223Z,7.93
2018-06-03T02:30:43.217Z,4.30
2018-06-03T02:33:12.157Z,5.20
2018-06-03T02:35:41.130Z,4.40
2018-06-03T02:38:10.113Z,3.67
2018-06-03T02:40:39.101Z,4.03
2018-06-03T02:43:08.135Z,3.60
2018-06-03T02:45:37.149Z,3.50
2018-06-03T02:48:06.159Z,3.97
2018-06-03T02:50:35.182Z,3.50
2018-06-03T02:53:04.148Z,3.70
2018-06-03T02:55:33.140Z,3.73
2018-06-03T02:58:02.150Z,6.83
2018-06-03T03:00:31.129Z,5.00
2018-06-03T03:03:00.124Z,4.17
2018-06-03T03:05:29.055Z,3.77
2018-06-03T03:07:58.052Z,4.03
2018-06-03T03:10:26.996Z,3.53
2018-06-03T03:12:56.006Z,4.00
2018-06-03T03:15:24.992Z,3.83
2018-06-03T03:17:53.982Z,3.67
2018-06-03T03:20:22.933Z,4.57
2018-06-03T03:22:51.911Z,3.57
2018-06-03T03:25:20.855Z,3.93
2018-06-03T03:27:49.862Z,3.90
2018-06-03T03:30:18.775Z,3.97
2018-06-03T03:32:47.722Z,4.00
2018-06-03T03:35:16.622Z,4.30
2018-06-03T03:37:45.567Z,3.63
2018-06-03T03:40:14.470Z,3.77
2018-06-03T03:42:43.431Z,3.53
2018-06-03T03:45:12.359Z,3.70
2018-06-03T03:47:41.315Z,3.57
2018-06-03T03:50:10.231Z,4.30
2018-06-03T03:52:39.231Z,3.77
2018-06-03T03:55:08.146Z,3.60
2018-06-03T03:57:37.100Z,3.80
2018-06-03T04:00:06.046Z,4.70
2018-06-03T04:02:35.019Z,3.80
2018-06-03T04:05:03.931Z,3.70
2018-06-03T04:07:32.883Z,6.57
2018-06-03T04:10:01.791Z,4.37
2018-06-03T04:12:30.759Z,5.57
2018-06-03T04:14:59.704Z,4.13
2018-06-03T04:17:28.669Z,4.03
2018-06-03T04:19:57.598Z,4.43
2018-06-03T04:22:26.550Z,4.83
2018-06-03T04:24:55.503Z,3.20
2018-06-03T04:27:24.473Z,3.83
2018-06-03T04:29:53.442Z,4.23
2018-06-03T04:32:22.385Z,3.73
2018-06-03T04:34:51.275Z,4.10
2018-06-03T04:37:20.262Z,3.60
2018-06-03T04:39:49.163Z,4.00
2018-06-03T04:42:18.115Z,3.33
2018-06-03T04:44:47.014Z,4.37
2018-06-03T04:47:15.980Z,4.50
2018-06-03T04:49:44.907Z,4.07
2018-06-03T04:52:13.855Z,4.33
2018-06-03T04:54:42.756Z,4.30
2018-06-03T04:57:11.722Z,3.80
2018-06-03T04:59:40.870Z,4.60
2018-06-03T05:02:09.966Z,5.60
2018-06-03T05:04:38.897Z,3.90
2018-06-03T05:07:07.838Z,3.50
2018-06-03T05:09:36.766Z,4.50
2018-06-03T05:12:05.760Z,3.83
2018-06-03T05:14:34.674Z,4.47
2018-06-03T05:17:03.619Z,5.07
2018-06-03T05:19:32.550Z,3.87
2018-06-03T05:22:01.512Z,3.63
2018-06-03T05:24:30.414Z,4.87
2018-06-03T05:26:59.393Z,4.43
2018-06-03T05:29:28.335Z,3.67
2018-06-03T05:31:57.299Z,5.30
2018-06-03T05:34:26.238Z,4.17
2018-06-03T05:36:55.234Z,6.07
2018-06-03T05:39:24.229Z,3.80
2018-06-03T05:41:53.154Z,3.90
2018-06-03T05:44:22.142Z,3.03
2018-06-03T05:46:51.090Z,3.67
2018-06-03T05:49:20.090Z,4.80
2018-06-03T05:51:49.036Z,3.97
2018-06-03T05:54:18.006Z,6.07
2018-06-03T05:56:46.941Z,5.00
2018-06-03T05:59:15.934Z,4.70
2018-06-03T06:01:44.882Z,4.40
2018-06-03T06:04:13.846Z,5.07
2018-06-03T06:06:42.774Z,4.90
2018-06-03T06:09:11.747Z,5.60
2018-06-03T06:11:40.700Z,4.93
2018-06-03T06:14:09.701Z,4.30
2018-06-03T06:16:38.639Z,7.43
2018-06-03T06:19:07.629Z,5.10
2018-06-03T06:21:36.577Z,5.63
2018-06-03T06:24:05.568Z,4.03
2018-06-03T06:26:34.502Z,4.23
2018-06-03T06:29:03.494Z,4.23
2018-06-03T06:31:32.413Z,5.10
2018-06-03T06:34:01.359Z,4.50
2018-06-03T06:36:30.368Z,4.13
2018-06-03T06:38:59.374Z,4.13
2018-06-03T06:41:28.344Z,3.97
2018-06-03T06:43:57.344Z,3.77
2018-06-03T06:46:26.320Z,3.80
2018-06-03T06:48:55.340Z,3.47
2018-06-03T06:51:24.330Z,3.17
2018-06-03T06:53:53.329Z,4.80
2018-06-03T06:56:22.350Z,4.90
2018-06-03T06:58:51.364Z,5.07
2018-06-03T07:01:20.351Z,4.30
2018-06-03T07:03:49.353Z,4.97
2018-06-03T07:06:18.337Z,4.60
2018-06-03T07:08:47.320Z,4.83
2018-06-03T07:11:16.246Z,4.50
2018-06-03T07:13:45.241Z,5.27
2018-06-03T07:16:14.183Z,4.63
2018-06-03T07:18:43.155Z,3.40
2018-06-03T07:21:12.126Z,3.00
2018-06-03T07:23:41.140Z,3.27
2018-06-03T07:26:10.098Z,2.83
2018-06-03T07:28:39.131Z,4.07
2018-06-03T07:31:08.046Z,3.20
2018-06-03T07:33:36.997Z,3.90
2018-06-03T07:36:05.923Z,4.27
2018-06-03T07:38:34.908Z,3.20
2018-06-03T07:41:03.826Z,4.00
2018-06-03T07:43:32.818Z,2.33
2018-06-03T07:46:01.886Z,3.37
2018-06-03T07:48:31.059Z,3.70
2018-06-03T07:50:59.951Z,3.63
2018-06-03T07:53:28.910Z,3.20
2018-06-03T07:55:57.831Z,3.40
2018-06-03T07:58:26.798Z,3.83
2018-06-03T08:00:55.734Z,3.80
2018-06-03T08:03:24.683Z,3.10
2018-06-03T08:05:53.594Z,3.67
2018-06-03T08:08:22.544Z,3.40
2018-06-03T08:10:51.487Z,3.60
2018-06-03T08:13:20.434Z,3.10
2018-06-03T08:15:49.352Z,3.43
2018-06-03T08:18:18.335Z,4.63
2018-06-03T08:20:47.223Z,2.90
2018-06-03T08:23:16.183Z,3.17
2018-06-03T08:25:45.127Z,4.13
2018-06-03T08:28:14.122Z,3.27
2018-06-03T08:30:43.041Z,2.60
2018-06-03T08:33:11.975Z,3.60
2018-06-03T08:35:40.974Z,2.90
2018-06-03T08:38:09.906Z,2.93
2018-06-03T08:40:38.950Z,2.90
2018-06-03T08:43:07.890Z,3.13
2018-06-03T08:45:36.847Z,2.50
2018-06-03T08:48:05.771Z,5.53
2018-06-03T08:50:34.715Z,4.07
2018-06-03T08:53:03.652Z,3.90
2018-06-03T08:55:32.619Z,2.47
2018-06-03T08:58:01.600Z,3.03
2018-06-03T09:00:30.587Z,2.70
2018-06-03T09:02:59.499Z,3.00
2018-06-03T09:05:28.793Z,2.50
2018-06-03T09:07:57.699Z,4.03
2018-06-03T09:10:26.626Z,6.57
2018-06-03T09:12:55.515Z,2.67
2018-06-03T09:15:24.458Z,2.50
2018-06-03T09:17:53.355Z,3.70
2018-06-03T09:20:22.299Z,4.70
2018-06-03T09:22:51.198Z,2.40
2018-06-03T09:25:20.156Z,3.70
2018-06-03T09:27:49.068Z,2.47
2018-06-03T09:30:18.038Z,2.57
2018-06-03T09:32:46.949Z,2.50
2018-06-03T09:35:15.912Z,2.30
2018-06-03T09:37:45.147Z,1.90
2018-06-03T09:40:14.123Z,1.90
2018-06-03T09:42:43.047Z,1.57
2018-06-03T09:45:11.988Z,1.63
2018-06-03T09:47:40.903Z,2.60
2018-06-03T09:50:09.962Z,2.10
2018-06-03T09:52:38.910Z,2.67
2018-06-03T09:55:07.877Z,1.90
2018-06-03T09:57:36.938Z,2.27
2018-06-03T10:00:06.014Z,2.97
2018-06-03T10:02:34.940Z,1.93
2018-06-03T10:05:03.946Z,2.87
2018-06-03T10:07:32.949Z,2.20
2018-06-03T10:10:01.887Z,2.50
2018-06-03T10:12:30.791Z,3.43
2018-06-03T10:14:59.771Z,2.33
2018-06-03T10:17:28.859Z,2.63
2018-06-03T10:19:57.895Z,2.73
2018-06-03T10:22:26.798Z,3.33
2018-06-03T10:24:55.790Z,2.20
2018-06-03T10:27:25.251Z,2.10
2018-06-03T10:29:54.458Z,2.37
2018-06-03T10:32:23.796Z,2.30
2018-06-03T10:34:52.821Z,3.03
2018-06-03T10:37:22.509Z,2.30
2018-06-03T10:39:52.272Z,1.80
2018-06-03T10:42:21.993Z,2.40
2018-06-03T10:44:51.772Z,2.37
2018-06-03T10:47:21.505Z,2.13
2018-06-03T10:49:51.331Z,2.30
2018-06-03T10:52:21.056Z,2.13
2018-06-03T10:54:50.893Z,2.17
2018-06-03T10:57:21.227Z,2.80
2018-06-03T10:59:51.036Z,2.23
2018-06-03T11:02:20.763Z,2.27
2018-06-03T11:04:50.668Z,2.60
2018-06-03T11:07:20.251Z,2.10
2018-06-03T11:09:50.469Z,3.10
2018-06-03T11:12:20.112Z,2.00
2018-06-03T11:14:49.797Z,2.60
2018-06-03T11:17:19.789Z,2.62
2018-06-03T11:19:49.525Z,2.40
2018-06-03T11:22:19.264Z,1.97
2018-06-03T11:24:48.965Z,4.37
2018-06-03T11:27:18.699Z,3.00
2018-06-03T11:29:48.470Z,1.97
2018-06-03T11:32:18.224Z,2.53
2018-06-03T11:34:47.965Z,1.97
2018-06-03T11:37:17.643Z,2.87
2018-06-03T11:39:47.401Z,5.40
2018-06-03T11:42:17.108Z,1.97
2018-06-03T11:44:46.206Z,2.67
2018-06-03T11:47:15.169Z,1.90
2018-06-03T11:49:44.155Z,1.50
2018-06-03T11:52:13.073Z,2.30
2018-06-03T11:54:42.047Z,3.73
2018-06-03T11:57:11.033Z,2.10
2018-06-03T11:59:42.977Z,2.27
2018-06-03T12:02:13.146Z,2.30
2018-06-03T12:04:42.126Z,2.00
2018-06-03T12:07:11.102Z,1.93
2018-06-03T12:09:40.059Z,2.43
2018-06-03T12:12:09.228Z,2.43
2018-06-03T12:14:38.238Z,2.30
2018-06-03T12:17:07.234Z,1.93
2018-06-03T12:19:36.190Z,3.60
2018-06-03T12:22:05.186Z,2.63
2018-06-03T12:24:34.139Z,1.90
2018-06-03T12:27:03.106Z,3.83
2018-06-03T12:29:32.044Z,2.27
2018-06-03T12:32:01.041Z,2.50
2018-06-03T12:34:29.984Z,2.00
2018-06-03T12:36:58.966Z,2.23
2018-06-03T12:39:27.991Z,2.23
2018-06-03T12:41:56.997Z,2.50
2018-06-03T12:44:25.948Z,2.30
2018-06-03T12:46:54.955Z,3.47
2018-06-03T12:49:23.875Z,2.20
2018-06-03T12:51:52.866Z,2.20
2018-06-03T12:54:21.901Z,2.63
2018-06-03T12:56:50.887Z,1.90
2018-06-03T12:59:19.826Z,2.07
2018-06-03T13:01:48.810Z,3.80
2018-06-03T13:04:17.771Z,2.47
2018-06-03T13:06:46.777Z,2.50
2018-06-03T13:09:15.737Z,2.87
2018-06-03T13:11:44.740Z,2.40
2018-06-03T13:14:13.734Z,2.13
2018-06-03T13:16:42.763Z,2.20
2018-06-03T13:19:11.702Z,2.63
2018-06-03T13:21:40.937Z,2.50
2018-06-03T13:24:09.877Z,2.70
2018-06-03T13:26:38.876Z,1.70
2018-06-03T13:29:07.868Z,3.40
2018-06-03T13:31:36.858Z,2.57
2018-06-03T13:34:06.026Z,2.40
2018-06-03T13:36:35.006Z,2.60
2018-06-03T13:39:04.206Z,1.90
2018-06-03T13:41:33.194Z,2.30
2018-06-03T13:44:02.148Z,2.40
2018-06-03T13:46:31.135Z,2.93
2018-06-03T13:49:00.079Z,2.47
2018-06-03T13:51:29.085Z,2.00
2018-06-03T13:53:58.056Z,2.47
2018-06-03T13:56:27.039Z,2.50
2018-06-03T13:58:56.005Z,2.47
2018-06-03T14:01:25.024Z,2.33
2018-06-03T14:03:53.975Z,2.30
2018-06-03T14:06:22.986Z,2.10
2018-06-03T14:08:51.953Z,2.00
2018-06-03T14:11:20.938Z,2.70
2018-06-03T14:13:49.877Z,3.90
2018-06-03T14:16:18.837Z,2.73
2018-06-03T14:18:47.798Z,2.50
2018-06-03T14:21:16.802Z,2.57
2018-06-03T14:23:45.754Z,2.80
2018-06-03T14:26:14.775Z,2.33
2018-06-03T14:28:43.704Z,1.87
2018-06-03T14:31:12.654Z,2.63
2018-06-03T14:33:41.578Z,2.87
2018-06-03T14:36:10.521Z,2.20
2018-06-03T14:38:39.589Z,2.30
2018-06-03T14:41:08.551Z,2.10
2018-06-03T14:43:37.595Z,2.37
2018-06-03T14:46:06.541Z,2.67
2018-06-03T14:48:35.659Z,1.97
2018-06-03T14:51:04.674Z,2.00
2018-06-03T14:53:33.566Z,1.77
2018-06-03T14:56:02.531Z,2.53
2018-06-03T14:58:31.385Z,2.40
2018-06-03T15:01:00.382Z,3.27
2018-06-03T15:03:29.354Z,1.87
2018-06-03T15:05:58.255Z,2.10
2018-06-03T15:08:27.208Z,1.90
2018-06-03T15:10:56.140Z,1.87
2018-06-03T15:13:25.108Z,2.33
2018-06-03T15:15:54.019Z,3.40
2018-06-03T15:18:22.991Z,1.90
2018-06-03T15:20:51.928Z,1.67
2018-06-03T15:23:20.912Z,1.90
2018-06-03T15:25:49.848Z,1.93
2018-06-03T15:28:18.836Z,1.73
2018-06-03T15:30:47.759Z,1.70
2018-06-03T15:33:16.736Z,2.40
2018-06-03T15:35:45.669Z,1.43
2018-06-03T15:38:14.656Z,1.60
2018-06-03T15:40:43.576Z,1.73
2018-06-03T15:43:12.571Z,1.80
2018-06-03T15:45:41.476Z,1.80
2018-06-03T15:48:10.459Z,2.03
2018-06-03T15:50:39.376Z,2.10
2018-06-03T15:53:08.367Z,2.60
2018-06-03T15:55:37.311Z,2.30
2018-06-03T15:58:06.268Z,1.70
2018-06-03T16:00:35.212Z,1.70
2018-06-03T16:03:04.382Z,1.87
2018-06-03T16:05:33.330Z,1.70
2018-06-03T16:08:02.338Z,2.10
2018-06-03T16:10:31.234Z,2.80
2018-06-03T16:13:00.310Z,4.20
2018-06-03T16:15:29.359Z,2.17
2018-06-03T16:17:58.335Z,1.80
2018-06-03T16:20:27.266Z,1.70
2018-06-03T16:22:56.259Z,1.80
2018-06-03T16:25:25.195Z,1.77
2018-06-03T16:27:54.170Z,2.27
2018-06-03T16:30:23.174Z,3.63
2018-06-03T16:32:52.126Z,2.60
2018-06-03T16:35:21.086Z,2.77
2018-06-03T16:37:50.087Z,2.00
2018-06-03T16:40:19.102Z,2.10
2018-06-03T16:42:48.102Z,1.73
2018-06-03T16:45:17.101Z,1.70
2018-06-03T16:47:46.117Z,1.87
2018-06-03T16:50:15.109Z,1.97
2018-06-03T16:52:44.126Z,1.70
2018-06-03T16:55:13.094Z,1.67
2018-06-03T16:57:42.082Z,1.57
2018-06-03T17:00:11.047Z,1.53
2018-06-03T17:02:40.068Z,1.53
2018-06-03T17:05:09.028Z,1.40
2018-06-03T17:07:38.053Z,1.63
2018-06-03T17:10:07.015Z,1.50
2018-06-03T17:12:36.088Z,1.87
2018-06-03T17:15:05.065Z,1.33
2018-06-03T17:17:34.067Z,3.73
2018-06-03T17:20:03.004Z,2.13
2018-06-03T17:22:31.983Z,1.33
2018-06-03T17:25:00.961Z,3.20
2018-06-03T17:27:29.947Z,1.97
2018-06-03T17:29:58.911Z,1.50
2018-06-03T17:32:27.890Z,2.03
2018-06-03T17:34:56.828Z,2.23
2018-06-03T17:37:25.781Z,1.77
2018-06-03T17:39:54.723Z,2.30
2018-06-03T17:42:23.679Z,1.50
2018-06-03T17:44:52.597Z,2.00
2018-06-03T17:47:21.549Z,2.00
2018-06-03T17:49:50.476Z,2.23
2018-06-03T17:52:19.426Z,2.30
2018-06-03T17:54:48.367Z,2.53
2018-06-03T17:57:17.336Z,3.40
2018-06-03T17:59:46.263Z,2.47
2018-06-03T18:02:15.215Z,1.83
2018-06-03T18:04:44.164Z,2.00
2018-06-03T18:07:13.086Z,2.00
2018-06-03T18:09:42.007Z,2.47
2018-06-03T18:12:10.932Z,1.77
2018-06-03T18:14:39.905Z,2.40
2018-06-03T18:17:08.837Z,2.37
2018-06-03T18:19:37.838Z,1.80
2018-06-03T18:22:06.766Z,5.33
2018-06-03T18:24:35.719Z,1.73
2018-06-03T18:27:04.650Z,2.20
2018-06-03T18:29:33.675Z,2.70
2018-06-03T18:32:02.619Z,2.30
2018-06-03T18:34:31.618Z,2.17
2018-06-03T18:37:00.636Z,1.90
2018-06-03T18:39:29.623Z,2.40
2018-06-03T18:41:58.584Z,2.43
2018-06-03T18:44:27.587Z,2.40
2018-06-03T18:46:56.538Z,2.83
2018-06-03T18:49:25.655Z,2.63
2018-06-03T18:51:54.783Z,2.63
2018-06-03T18:54:23.747Z,2.33
2018-06-03T18:56:52.754Z,2.47
2018-06-03T18:59:21.822Z,2.47
2018-06-03T19:01:50.743Z,2.23
2018-06-03T19:04:20.176Z,2.90
2018-06-03T19:06:49.614Z,3.00
2018-06-03T19:09:18.630Z,2.53
2018-06-03T19:11:47.573Z,2.47
2018-06-03T19:14:16.551Z,2.70
2018-06-03T19:16:45.543Z,2.27
2018-06-03T19:19:14.527Z,2.70
2018-06-03T19:21:43.458Z,2.60
2018-06-03T19:24:12.465Z,2.90
2018-06-03T19:26:41.434Z,3.33
2018-06-03T19:29:10.411Z,2.40
2018-06-03T19:31:39.329Z,2.60
2018-06-03T19:34:08.274Z,2.90
2018-06-03T19:36:37.171Z,2.37
2018-06-03T19:39:08.439Z,3.50
2018-06-03T19:41:37.854Z,3.00
2018-06-03T19:44:06.943Z,3.03
2018-06-03T19:46:35.835Z,2.70
2018-06-03T19:49:04.824Z,2.50
2018-06-03T19:51:33.773Z,2.73
2018-06-03T19:54:02.793Z,3.03
2018-06-03T19:56:31.712Z,2.97
2018-06-03T19:59:00.716Z,4.50
2018-06-03T20:01:29.723Z,2.90
2018-06-03T20:03:58.680Z,2.87
2018-06-03T20:06:27.592Z,2.77
2018-06-03T20:08:56.550Z,3.23
2018-06-03T20:11:25.438Z,5.23
2018-06-03T20:13:54.392Z,2.60
2018-06-03T20:16:23.314Z,3.13
2018-06-03T20:18:52.253Z,2.97
2018-06-03T20:21:21.191Z,2.90
2018-06-03T20:23:50.133Z,2.63
2018-06-03T20:26:19.053Z,3.70
2018-06-03T20:28:48.085Z,3.87
2018-06-03T20:31:17.033Z,3.50
2018-06-03T20:33:46.002Z,3.60
2018-06-03T20:36:14.943Z,5.30
2018-06-03T20:38:43.944Z,3.50
2018-06-03T20:41:12.887Z,3.90
2018-06-03T20:43:41.887Z,3.43
2018-06-03T20:46:10.833Z,3.57
2018-06-03T20:48:39.912Z,3.57
2018-06-03T20:51:08.846Z,3.60
2018-06-03T20:53:37.861Z,4.70
2018-06-03T20:56:06.808Z,3.53
2018-06-03T20:58:35.817Z,3.73
2018-06-03T21:01:04.867Z,3.87
2018-06-03T21:03:33.804Z,3.50
2018-06-03T21:06:02.790Z,4.90
2018-06-03T21:08:31.800Z,3.80
2018-06-03T21:11:00.996Z,4.00
2018-06-03T21:13:30.007Z,3.93
2018-06-03T21:15:59.010Z,4.03
2018-06-03T21:18:28.019Z,3.20
2018-06-03T21:20:57.004Z,3.37
2018-06-03T21:23:25.957Z,3.87
2018-06-03T21:25:54.937Z,3.70
2018-06-03T21:28:23.880Z,3.40
2018-06-03T21:30:52.874Z,3.57
2018-06-03T21:33:21.803Z,5.17
2018-06-03T21:35:50.798Z,3.30
2018-06-03T21:38:19.754Z,4.20
2018-06-03T21:40:48.716Z,4.17
2018-06-03T21:43:17.667Z,3.50
2018-06-03T21:45:46.755Z,3.83
2018-06-03T21:48:15.691Z,3.47
2018-06-03T21:50:44.682Z,3.93
2018-06-03T21:53:13.823Z,4.50
2018-06-03T21:55:42.810Z,4.63
2018-06-03T21:58:11.757Z,3.70
2018-06-03T22:00:40.760Z,4.70
2018-06-03T22:03:09.694Z,3.60
2018-06-03T22:05:38.678Z,3.63
2018-06-03T22:08:07.614Z,4.60
2018-06-03T22:10:36.581Z,4.10
2018-06-03T22:13:05.534Z,3.83
2018-06-03T22:15:34.519Z,3.90
2018-06-03T22:18:03.489Z,4.50
2018-06-03T22:20:32.574Z,4.77
2018-06-03T22:23:01.559Z,4.23
2018-06-03T22:25:30.553Z,4.07
2018-06-03T22:27:59.522Z,3.60
2018-06-03T22:30:28.481Z,4.70
2018-06-03T22:32:57.397Z,4.17
2018-06-03T22:35:26.534Z,4.77
2018-06-03T22:37:55.414Z,4.07
2018-06-03T22:40:24.367Z,4.00
2018-06-03T22:42:53.339Z,4.80
2018-06-03T22:45:22.291Z,4.87
2018-06-03T22:47:51.177Z,5.37
2018-06-03T22:50:20.138Z,5.43
2018-06-03T22:52:49.035Z,5.53
2018-06-03T22:55:18.003Z,4.80
2018-06-03T22:57:49.166Z,5.63
2018-06-03T23:00:34.580Z,4.67
2018-06-03T23:03:08.759Z,5.30
2018-06-03T23:05:37.704Z,7.43
2018-06-03T23:08:06.591Z,5.60
2018-06-03T23:10:35.551Z,5.83
2018-06-03T23:13:04.455Z,6.17
2018-06-03T23:15:33.406Z,6.90
2018-06-03T23:18:02.294Z,5.80
2018-06-03T23:20:31.252Z,6.03
2018-06-03T23:23:00.164Z,9.10
2018-06-03T23:25:29.176Z,6.70
2018-06-03T23:27:58.140Z,6.77
2018-06-03T23:30:27.143Z,7.07
2018-06-03T23:32:56.085Z,7.57
2018-06-03T23:35:25.055Z,7.03
2018-06-03T23:37:54.018Z,7.40
2018-06-03T23:40:22.985Z,6.20
2018-06-03T23:42:51.913Z,7.67
2018-06-03T23:45:20.909Z,7.67
2018-06-03T23:47:49.862Z,7.37
2018-06-03T23:50:18.842Z,7.30
2018-06-03T23:52:47.803Z,8.43
2018-06-03T23:55:16.796Z,7.80
2018-06-03T23:57:45.779Z,7.37
